Sns 605 J.p. Le Roch — FGG4888 — position and weather

sailwx.info

Track history (hours):
 
Tides and Currents Weather Stations Pressure Air Temp Water Temp Dewpoint Dewpoint Depression Visibility Wind Speed Wind Dir Waves Ship Positions

Sns 605 J.p. Le Roch

Last reported at 2018-Jul-14 12:20 UTC. Time now 2018-Jul-15 19:04 UTC.
Position N 47°36' W 002°51'.

Length 6 m.

Type: SAR. MMSI: 227019170.

Date/timePositionNaut miles runAvg speedWind from/ knotsBaromVisibWave heightAir tempDewpointWater temp
2018-Jul-14 12:20N 47°36' W 002°51'3 7.9
2018-Jul-14 11:59N 47°34' W 002°54'3 0.1
2018-Jul-13 15:39N 47°36' W 002°52'210.9
2018-Jul-13 15:30N 47°35' W 002°53'2 3.5
2018-Jul-13 15:00N 47°34' W 002°55'3 0.2
2018-Jul-12 19:31N 47°36' W 002°52'0 8.5
2018-Jul-12 19:29N 47°36' W 002°52'0 0.0
2018-Jul-12 10:07N 47°36' W 002°52'0 1.9
2018-Jul-12 10:00N 47°36' W 002°51'0 0.0
2018-Jul-10 22:13N 47°36' W 002°52'418.2
2018-Jul-10 22:00N 47°36' W 002°46'1 2.2
2018-Jul-10 21:30N 47°35' W 002°44'5 9.5
2018-Jul-10 20:58N 47°36' W 002°52'  
2018-Jul-07 09:05N 47°36' W 002°52'0 1.5
2018-Jul-07 09:00N 47°36' W 002°51'1 1.9
2018-Jul-07 08:28N 47°36' W 002°50'0 0.8
2018-Jul-07 07:59N 47°36' W 002°49'1 2.3
2018-Jul-07 07:28N 47°36' W 002°51'1 0.0
2018-Jul-05 22:53N 47°36' W 002°52'3 6.7
2018-Jul-05 22:30N 47°35' W 002°49'1 1.2
2018-Jul-05 21:58N 47°35' W 002°48'1 1.0
2018-Jul-05 21:29N 47°35' W 002°48'3 5.2
2018-Jul-05 20:57N 47°36' W 002°52'0 0.0
2018-Jul-05 15:36N 47°36' W 002°52'1 5.8
2018-Jul-05 15:30N 47°36' W 002°51'1 1.5
2018-Jul-05 15:00N 47°37' W 002°50'2 3.6
2018-Jul-05 14:29N 47°35' W 002°49'0 0.4
2018-Jul-05 13:29N 47°35' W 002°48'3 5.3
2018-Jul-05 13:00N 47°36' W 002°51'3 4.6
2018-Jul-05 12:27N 47°35' W 002°48'3 5.1
2018-Jul-05 11:56N 47°36' W 002°52'  
Track history (hours):
 
Tides and Currents Weather Stations Pressure Air Temp Water Temp Dewpoint Dewpoint Depression Visibility Wind Speed Wind Dir Waves Ship Positions

Sns 605 J.p. Le Roch

Last reported at 2018-Jul-14 12:20 UTC. Time now 2018-Jul-15 19:04 UTC.
Position N 47°36' W 002°51'.

Length 6 m.

Type: SAR. MMSI: 227019170.

Date/timePositionNaut miles runAvg speedWind from/ knotsBaromVisibWave heightAir tempDewpointWater temp
2018-Jul-14 12:20N 47°36' W 002°51'3 7.9
2018-Jul-14 11:59N 47°34' W 002°54'3 0.1
2018-Jul-13 15:39N 47°36' W 002°52'210.9
2018-Jul-13 15:30N 47°35' W 002°53'2 3.5
2018-Jul-13 15:00N 47°34' W 002°55'3 0.2
2018-Jul-12 19:31N 47°36' W 002°52'0 8.5
2018-Jul-12 19:29N 47°36' W 002°52'0 0.0
2018-Jul-12 10:07N 47°36' W 002°52'0 1.9
2018-Jul-12 10:00N 47°36' W 002°51'0 0.0
2018-Jul-10 22:13N 47°36' W 002°52'418.2
2018-Jul-10 22:00N 47°36' W 002°46'1 2.2
2018-Jul-10 21:30N 47°35' W 002°44'5 9.5
2018-Jul-10 20:58N 47°36' W 002°52'  
2018-Jul-07 09:05N 47°36' W 002°52'0 1.5
2018-Jul-07 09:00N 47°36' W 002°51'1 1.9
2018-Jul-07 08:28N 47°36' W 002°50'0 0.8
2018-Jul-07 07:59N 47°36' W 002°49'1 2.3
2018-Jul-07 07:28N 47°36' W 002°51'1 0.0
2018-Jul-05 22:53N 47°36' W 002°52'3 6.7
2018-Jul-05 22:30N 47°35' W 002°49'1 1.2
2018-Jul-05 21:58N 47°35' W 002°48'1 1.0
2018-Jul-05 21:29N 47°35' W 002°48'3 5.2
2018-Jul-05 20:57N 47°36' W 002°52'0 0.0
2018-Jul-05 15:36N 47°36' W 002°52'1 5.8
2018-Jul-05 15:30N 47°36' W 002°51'1 1.5
2018-Jul-05 15:00N 47°37' W 002°50'2 3.6
2018-Jul-05 14:29N 47°35' W 002°49'0 0.4
2018-Jul-05 13:29N 47°35' W 002°48'3 5.3
2018-Jul-05 13:00N 47°36' W 002°51'3 4.6
2018-Jul-05 12:27N 47°35' W 002°48'3 5.1
2018-Jul-05 11:56N 47°36' W 002°52'  

Dump ship's entire track history